sensor_id;sensor_type;location;lat;lon;timestamp;P1;durP1;ratioP1;P2;durP2;ratioP2
20970;SDS011;10644;48.834;10.088;2022-11-06T00:09:13;27.55;;;13.63;;
20970;SDS011;10644;48.834;10.088;2022-11-06T00:11:47;36.42;;;17.70;;
20970;SDS011;10644;48.834;10.088;2022-11-06T00:14:22;27.23;;;14.40;;
20970;SDS011;10644;48.834;10.088;2022-11-06T00:16:49;30.65;;;16.13;;
20970;SDS011;10644;48.834;10.088;2022-11-06T00:22:00;32.20;;;16.65;;
20970;SDS011;10644;48.834;10.088;2022-11-06T00:27:11;33.33;;;16.25;;
20970;SDS011;10644;48.834;10.088;2022-11-06T00:29:37;31.63;;;16.25;;
20970;SDS011;10644;48.834;10.088;2022-11-06T00:32:15;43.67;;;21.80;;
20970;SDS011;10644;48.834;10.088;2022-11-06T00:40:46;30.27;;;16.48;;
20970;SDS011;10644;48.834;10.088;2022-11-06T00:43:21;32.10;;;14.68;;
20970;SDS011;10644;48.834;10.088;2022-11-06T00:48:53;26.30;;;13.93;;
20970;SDS011;10644;48.834;10.088;2022-11-06T00:51:36;36.13;;;16.25;;
20970;SDS011;10644;48.834;10.088;2022-11-06T00:54:08;40.75;;;18.55;;
20970;SDS011;10644;48.834;10.088;2022-11-06T01:05:21;38.00;;;15.60;;
20970;SDS011;10644;48.834;10.088;2022-11-06T01:07:48;30.35;;;16.05;;
20970;SDS011;10644;48.834;10.088;2022-11-06T01:10:19;28.75;;;15.18;;
20970;SDS011;10644;48.834;10.088;2022-11-06T01:12:50;31.63;;;14.35;;
20970;SDS011;10644;48.834;10.088;2022-11-06T01:15:27;31.27;;;15.73;;
20970;SDS011;10644;48.834;10.088;2022-11-06T01:17:59;36.50;;;17.67;;
20970;SDS011;10644;48.834;10.088;2022-11-06T01:25:56;30.40;;;13.45;;
20970;SDS011;10644;48.834;10.088;2022-11-06T01:28:29;32.85;;;14.60;;
20970;SDS011;10644;48.834;10.088;2022-11-06T01:31:04;26.83;;;13.10;;
20970;SDS011;10644;48.834;10.088;2022-11-06T01:33:31;23.60;;;12.90;;
20970;SDS011;10644;48.834;10.088;2022-11-06T01:36:07;31.87;;;14.17;;
20970;SDS011;10644;48.834;10.088;2022-11-06T01:38:43;22.88;;;12.10;;
20970;SDS011;10644;48.834;10.088;2022-11-06T01:47:26;24.60;;;13.60;;
20970;SDS011;10644;48.834;10.088;2022-11-06T01:50:03;41.90;;;18.10;;
20970;SDS011;10644;48.834;10.088;2022-11-06T01:52:34;27.02;;;14.45;;
20970;SDS011;10644;48.834;10.088;2022-11-06T01:57:50;38.45;;;17.50;;
20970;SDS011;10644;48.834;10.088;2022-11-06T02:00:20;32.60;;;14.85;;
20970;SDS011;10644;48.834;10.088;2022-11-06T02:02:52;27.95;;;14.38;;
20970;SDS011;10644;48.834;10.088;2022-11-06T02:05:20;21.48;;;13.20;;
20970;SDS011;10644;48.834;10.088;2022-11-06T02:07:53;31.83;;;14.45;;
20970;SDS011;10644;48.834;10.088;2022-11-06T02:10:33;26.20;;;13.40;;
20970;SDS011;10644;48.834;10.088;2022-11-06T02:16:16;22.10;;;12.57;;
20970;SDS011;10644;48.834;10.088;2022-11-06T02:25:07;20.50;;;11.70;;
20970;SDS011;10644;48.834;10.088;2022-11-06T02:27:47;24.25;;;12.45;;
20970;SDS011;10644;48.834;10.088;2022-11-06T02:30:29;33.35;;;13.55;;
20970;SDS011;10644;48.834;10.088;2022-11-06T02:32:59;19.30;;;11.32;;
20970;SDS011;10644;48.834;10.088;2022-11-06T02:36:32;25.42;;;12.85;;
20970;SDS011;10644;48.834;10.088;2022-11-06T02:38:48;25.27;;;11.63;;
20970;SDS011;10644;48.834;10.088;2022-11-06T02:41:19;23.08;;;12.32;;
20970;SDS011;10644;48.834;10.088;2022-11-06T02:44:02;27.20;;;12.50;;
20970;SDS011;10644;48.834;10.088;2022-11-06T02:52:43;20.63;;;10.98;;
20970;SDS011;10644;48.834;10.088;2022-11-06T03:01:31;36.28;;;13.63;;
20970;SDS011;10644;48.834;10.088;2022-11-06T03:10:07;23.90;;;11.68;;
20970;SDS011;10644;48.834;10.088;2022-11-06T03:12:48;20.52;;;9.35;;
20970;SDS011;10644;48.834;10.088;2022-11-06T03:16:02;31.55;;;11.45;;
20970;SDS011;10644;48.834;10.088;2022-11-06T03:22:03;26.90;;;11.20;;
20970;SDS011;10644;48.834;10.088;2022-11-06T03:31:27;26.58;;;10.95;;
20970;SDS011;10644;48.834;10.088;2022-11-06T03:33:58;21.92;;;10.07;;
20970;SDS011;10644;48.834;10.088;2022-11-06T03:39:24;18.00;;;9.43;;
20970;SDS011;10644;48.834;10.088;2022-11-06T03:41:59;19.13;;;10.43;;
20970;SDS011;10644;48.834;10.088;2022-11-06T03:44:44;23.15;;;9.63;;
20970;SDS011;10644;48.834;10.088;2022-11-06T03:50:10;21.52;;;9.48;;
20970;SDS011;10644;48.834;10.088;2022-11-06T03:55:46;40.45;;;16.05;;
20970;SDS011;10644;48.834;10.088;2022-11-06T04:00:56;47.92;;;24.10;;
20970;SDS011;10644;48.834;10.088;2022-11-06T04:09:43;23.23;;;12.90;;
20970;SDS011;10644;48.834;10.088;2022-11-06T04:12:36;23.38;;;11.00;;
20970;SDS011;10644;48.834;10.088;2022-11-06T04:18:42;18.08;;;9.57;;
20970;SDS011;10644;48.834;10.088;2022-11-06T04:30:10;15.13;;;8.23;;
20970;SDS011;10644;48.834;10.088;2022-11-06T04:45:52;17.52;;;9.13;;
20970;SDS011;10644;48.834;10.088;2022-11-06T04:59:06;16.85;;;9.10;;
20970;SDS011;10644;48.834;10.088;2022-11-06T05:01:32;19.60;;;9.55;;
20970;SDS011;10644;48.834;10.088;2022-11-06T05:03:59;13.55;;;8.23;;
20970;SDS011;10644;48.834;10.088;2022-11-06T05:06:37;19.63;;;9.05;;
20970;SDS011;10644;48.834;10.088;2022-11-06T05:09:04;23.58;;;10.07;;
20970;SDS011;10644;48.834;10.088;2022-11-06T05:11:31;17.85;;;9.05;;
20970;SDS011;10644;48.834;10.088;2022-11-06T05:14:01;19.70;;;9.23;;
20970;SDS011;10644;48.834;10.088;2022-11-06T05:21:55;17.00;;;8.57;;
20970;SDS011;10644;48.834;10.088;2022-11-06T05:27:21;18.15;;;9.20;;
20970;SDS011;10644;48.834;10.088;2022-11-06T05:32:23;18.95;;;9.55;;
20970;SDS011;10644;48.834;10.088;2022-11-06T05:34:58;17.35;;;9.35;;
20970;SDS011;10644;48.834;10.088;2022-11-06T05:40:18;17.17;;;8.48;;
20970;SDS011;10644;48.834;10.088;2022-11-06T05:43:01;35.72;;;10.75;;
20970;SDS011;10644;48.834;10.088;2022-11-06T05:45:27;25.90;;;11.02;;
20970;SDS011;10644;48.834;10.088;2022-11-06T05:48:02;27.33;;;9.73;;
20970;SDS011;10644;48.834;10.088;2022-11-06T05:50:30;38.03;;;10.73;;
20970;SDS011;10644;48.834;10.088;2022-11-06T05:53:11;17.65;;;8.50;;
20970;SDS011;10644;48.834;10.088;2022-11-06T05:55:39;20.35;;;9.18;;
20970;SDS011;10644;48.834;10.088;2022-11-06T05:58:12;24.35;;;9.23;;
20970;SDS011;10644;48.834;10.088;2022-11-06T06:00:39;33.10;;;10.38;;
20970;SDS011;10644;48.834;10.088;2022-11-06T06:03:05;22.90;;;10.25;;
20970;SDS011;10644;48.834;10.088;2022-11-06T06:05:41;27.60;;;9.23;;
20970;SDS011;10644;48.834;10.088;2022-11-06T06:08:11;32.63;;;14.30;;
20970;SDS011;10644;48.834;10.088;2022-11-06T06:10:54;21.60;;;9.85;;
20970;SDS011;10644;48.834;10.088;2022-11-06T06:16:09;22.65;;;10.40;;
20970;SDS011;10644;48.834;10.088;2022-11-06T06:18:41;21.63;;;10.07;;
20970;SDS011;10644;48.834;10.088;2022-11-06T06:24:03;19.27;;;9.48;;
20970;SDS011;10644;48.834;10.088;2022-11-06T06:26:34;35.75;;;10.65;;
20970;SDS011;10644;48.834;10.088;2022-11-06T06:29:04;21.75;;;9.73;;
20970;SDS011;10644;48.834;10.088;2022-11-06T06:31:31;18.20;;;8.73;;
20970;SDS011;10644;48.834;10.088;2022-11-06T06:34:05;21.40;;;8.82;;
20970;SDS011;10644;48.834;10.088;2022-11-06T06:36:33;25.38;;;10.40;;
20970;SDS011;10644;48.834;10.088;2022-11-06T06:39:12;23.40;;;10.95;;
20970;SDS011;10644;48.834;10.088;2022-11-06T06:44:17;32.97;;;12.00;;
20970;SDS011;10644;48.834;10.088;2022-11-06T06:49:48;22.48;;;9.52;;
20970;SDS011;10644;48.834;10.088;2022-11-06T06:52:20;21.67;;;10.35;;
20970;SDS011;10644;48.834;10.088;2022-11-06T06:54:53;20.40;;;9.80;;
20970;SDS011;10644;48.834;10.088;2022-11-06T06:59:59;22.33;;;13.27;;
20970;SDS011;10644;48.834;10.088;2022-11-06T07:02:30;21.75;;;13.50;;
20970;SDS011;10644;48.834;10.088;2022-11-06T07:05:05;17.55;;;8.80;;
20970;SDS011;10644;48.834;10.088;2022-11-06T07:07:32;22.58;;;9.23;;
20970;SDS011;10644;48.834;10.088;2022-11-06T07:12:36;18.40;;;8.15;;
20970;SDS011;10644;48.834;10.088;2022-11-06T07:15:09;13.77;;;7.03;;
20970;SDS011;10644;48.834;10.088;2022-11-06T07:17:39;21.00;;;9.60;;
20970;SDS011;10644;48.834;10.088;2022-11-06T07:20:06;17.05;;;8.38;;
20970;SDS011;10644;48.834;10.088;2022-11-06T07:25:43;15.07;;;7.45;;
20970;SDS011;10644;48.834;10.088;2022-11-06T07:28:09;24.98;;;8.75;;
20970;SDS011;10644;48.834;10.088;2022-11-06T07:30:58;14.57;;;8.05;;
20970;SDS011;10644;48.834;10.088;2022-11-06T07:33:31;17.45;;;8.57;;
20970;SDS011;10644;48.834;10.088;2022-11-06T07:36:06;13.90;;;7.40;;
20970;SDS011;10644;48.834;10.088;2022-11-06T07:38:33;17.52;;;8.68;;
20970;SDS011;10644;48.834;10.088;2022-11-06T07:43:39;21.23;;;8.50;;
20970;SDS011;10644;48.834;10.088;2022-11-06T07:46:09;10.32;;;3.90;;
20970;SDS011;10644;48.834;10.088;2022-11-06T07:48:41;15.50;;;7.05;;
20970;SDS011;10644;48.834;10.088;2022-11-06T07:51:18;16.90;;;8.98;;
20970;SDS011;10644;48.834;10.088;2022-11-06T07:53:43;18.70;;;9.30;;
20970;SDS011;10644;48.834;10.088;2022-11-06T07:56:22;17.40;;;8.13;;
20970;SDS011;10644;48.834;10.088;2022-11-06T07:58:49;19.02;;;8.50;;
20970;SDS011;10644;48.834;10.088;2022-11-06T08:04:03;15.80;;;7.85;;
20970;SDS011;10644;48.834;10.088;2022-11-06T08:06:45;15.73;;;8.13;;
20970;SDS011;10644;48.834;10.088;2022-11-06T08:09:18;14.60;;;7.97;;
20970;SDS011;10644;48.834;10.088;2022-11-06T08:11:44;15.80;;;8.40;;
20970;SDS011;10644;48.834;10.088;2022-11-06T08:14:27;18.08;;;8.45;;
20970;SDS011;10644;48.834;10.088;2022-11-06T08:17:04;20.55;;;10.05;;
20970;SDS011;10644;48.834;10.088;2022-11-06T08:22:29;17.85;;;10.05;;
20970;SDS011;10644;48.834;10.088;2022-11-06T08:24:55;20.40;;;10.10;;
20970;SDS011;10644;48.834;10.088;2022-11-06T08:33:24;14.40;;;8.85;;
20970;SDS011;10644;48.834;10.088;2022-11-06T08:35:51;17.15;;;8.40;;
20970;SDS011;10644;48.834;10.088;2022-11-06T08:38:20;17.40;;;8.60;;
20970;SDS011;10644;48.834;10.088;2022-11-06T08:40:45;18.73;;;9.18;;
20970;SDS011;10644;48.834;10.088;2022-11-06T08:43:32;15.68;;;9.43;;
20970;SDS011;10644;48.834;10.088;2022-11-06T08:46:09;17.30;;;8.95;;
20970;SDS011;10644;48.834;10.088;2022-11-06T08:48:41;21.23;;;10.43;;
20970;SDS011;10644;48.834;10.088;2022-11-06T08:51:11;17.63;;;7.33;;
20970;SDS011;10644;48.834;10.088;2022-11-06T08:56:30;16.48;;;9.02;;
20970;SDS011;10644;48.834;10.088;2022-11-06T08:59:12;12.20;;;6.40;;
20970;SDS011;10644;48.834;10.088;2022-11-06T09:01:37;13.68;;;7.72;;
20970;SDS011;10644;48.834;10.088;2022-11-06T09:04:21;18.07;;;8.97;;
20970;SDS011;10644;48.834;10.088;2022-11-06T09:06:59;22.27;;;10.07;;
20970;SDS011;10644;48.834;10.088;2022-11-06T09:09:24;12.63;;;7.20;;
20970;SDS011;10644;48.834;10.088;2022-11-06T09:12:01;11.27;;;6.60;;
20970;SDS011;10644;48.834;10.088;2022-11-06T09:14:27;17.30;;;8.40;;
20970;SDS011;10644;48.834;10.088;2022-11-06T09:16:56;12.83;;;7.70;;
20970;SDS011;10644;48.834;10.088;2022-11-06T09:19:26;14.57;;;8.50;;
20970;SDS011;10644;48.834;10.088;2022-11-06T09:21:52;12.43;;;7.70;;
20970;SDS011;10644;48.834;10.088;2022-11-06T09:24:20;13.63;;;8.20;;
20970;SDS011;10644;48.834;10.088;2022-11-06T09:26:59;14.67;;;7.47;;
20970;SDS011;10644;48.834;10.088;2022-11-06T09:29:24;13.20;;;7.33;;
20970;SDS011;10644;48.834;10.088;2022-11-06T09:31:54;14.47;;;7.33;;
20970;SDS011;10644;48.834;10.088;2022-11-06T09:34:24;15.87;;;7.63;;
20970;SDS011;10644;48.834;10.088;2022-11-06T09:36:50;17.50;;;9.17;;
20970;SDS011;10644;48.834;10.088;2022-11-06T09:42:27;12.43;;;7.63;;
20970;SDS011;10644;48.834;10.088;2022-11-06T09:50:55;17.73;;;7.50;;
20970;SDS011;10644;48.834;10.088;2022-11-06T09:55:57;12.90;;;7.50;;
20970;SDS011;10644;48.834;10.088;2022-11-06T09:58:36;20.97;;;10.97;;
20970;SDS011;10644;48.834;10.088;2022-11-06T10:01:11;14.50;;;8.67;;
20970;SDS011;10644;48.834;10.088;2022-11-06T10:06:31;17.85;;;8.43;;
20970;SDS011;10644;48.834;10.088;2022-11-06T10:09:01;14.97;;;7.40;;
20970;SDS011;10644;48.834;10.088;2022-11-06T10:16:53;18.42;;;8.52;;
20970;SDS011;10644;48.834;10.088;2022-11-06T10:19:42;17.27;;;8.63;;
20970;SDS011;10644;48.834;10.088;2022-11-06T10:28:14;21.70;;;12.10;;
20970;SDS011;10644;48.834;10.088;2022-11-06T10:30:56;19.60;;;10.95;;
20970;SDS011;10644;48.834;10.088;2022-11-06T10:39:12;37.53;;;16.33;;
20970;SDS011;10644;48.834;10.088;2022-11-06T10:41:51;26.03;;;13.43;;
20970;SDS011;10644;48.834;10.088;2022-11-06T10:44:22;22.27;;;10.77;;
20970;SDS011;10644;48.834;10.088;2022-11-06T10:46:59;22.20;;;12.97;;
20970;SDS011;10644;48.834;10.088;2022-11-06T11:00:58;12.47;;;7.87;;
20970;SDS011;10644;48.834;10.088;2022-11-06T11:03:29;15.07;;;9.67;;
20970;SDS011;10644;48.834;10.088;2022-11-06T11:06:02;15.43;;;8.83;;
20970;SDS011;10644;48.834;10.088;2022-11-06T11:08:41;16.77;;;10.57;;
20970;SDS011;10644;48.834;10.088;2022-11-06T11:13:39;11.90;;;8.30;;
20970;SDS011;10644;48.834;10.088;2022-11-06T11:16:22;14.30;;;9.10;;
20970;SDS011;10644;48.834;10.088;2022-11-06T11:18:50;14.00;;;8.63;;
20970;SDS011;10644;48.834;10.088;2022-11-06T11:26:43;15.57;;;9.30;;
20970;SDS011;10644;48.834;10.088;2022-11-06T11:32:17;15.47;;;9.60;;
20970;SDS011;10644;48.834;10.088;2022-11-06T11:34:46;15.00;;;9.77;;
20970;SDS011;10644;48.834;10.088;2022-11-06T11:37:34;14.07;;;8.40;;
20970;SDS011;10644;48.834;10.088;2022-11-06T11:43:21;16.20;;;7.70;;
20970;SDS011;10644;48.834;10.088;2022-11-06T11:54:04;12.83;;;7.93;;
20970;SDS011;10644;48.834;10.088;2022-11-06T12:02:14;11.33;;;7.70;;
20970;SDS011;10644;48.834;10.088;2022-11-06T12:07:45;12.43;;;8.47;;
20970;SDS011;10644;48.834;10.088;2022-11-06T12:10:27;17.53;;;8.93;;
20970;SDS011;10644;48.834;10.088;2022-11-06T12:16:18;7.57;;;5.37;;
20970;SDS011;10644;48.834;10.088;2022-11-06T12:18:45;15.07;;;9.07;;
20970;SDS011;10644;48.834;10.088;2022-11-06T12:23:53;15.00;;;9.17;;
20970;SDS011;10644;48.834;10.088;2022-11-06T12:29:26;14.10;;;9.60;;
20970;SDS011;10644;48.834;10.088;2022-11-06T12:32:18;16.23;;;10.23;;
20970;SDS011;10644;48.834;10.088;2022-11-06T12:35:49;14.37;;;9.90;;
20970;SDS011;10644;48.834;10.088;2022-11-06T12:43:48;15.57;;;10.13;;
20970;SDS011;10644;48.834;10.088;2022-11-06T13:09:14;18.87;;;11.33;;
20970;SDS011;10644;48.834;10.088;2022-11-06T13:14:56;19.20;;;12.03;;
20970;SDS011;10644;48.834;10.088;2022-11-06T13:17:34;19.20;;;10.70;;
20970;SDS011;10644;48.834;10.088;2022-11-06T13:29:08;15.43;;;6.83;;
20970;SDS011;10644;48.834;10.088;2022-11-06T13:34:51;19.17;;;12.00;;
20970;SDS011;10644;48.834;10.088;2022-11-06T13:37:30;18.10;;;11.73;;
20970;SDS011;10644;48.834;10.088;2022-11-06T13:54:08;23.33;;;13.23;;
20970;SDS011;10644;48.834;10.088;2022-11-06T14:03:03;18.83;;;10.60;;
20970;SDS011;10644;48.834;10.088;2022-11-06T14:08:58;17.03;;;9.50;;
20970;SDS011;10644;48.834;10.088;2022-11-06T14:11:38;16.77;;;7.93;;
20970;SDS011;10644;48.834;10.088;2022-11-06T14:14:29;17.77;;;10.13;;
20970;SDS011;10644;48.834;10.088;2022-11-06T14:24:43;21.47;;;12.00;;
20970;SDS011;10644;48.834;10.088;2022-11-06T14:27:15;22.43;;;12.37;;
20970;SDS011;10644;48.834;10.088;2022-11-06T14:32:57;19.60;;;10.50;;
20970;SDS011;10644;48.834;10.088;2022-11-06T14:38:10;19.60;;;10.80;;
20970;SDS011;10644;48.834;10.088;2022-11-06T14:40:54;33.30;;;14.40;;
20970;SDS011;10644;48.834;10.088;2022-11-06T14:43:31;18.83;;;11.05;;
20970;SDS011;10644;48.834;10.088;2022-11-06T14:48:54;21.52;;;11.38;;
20970;SDS011;10644;48.834;10.088;2022-11-06T14:54:05;16.98;;;;;
20970;SDS011;10644;48.834;10.088;2022-11-06T14:59:38;19.83;;;11.20;;
20970;SDS011;10644;48.834;10.088;2022-11-06T15:02:13;20.23;;;11.50;;
20970;SDS011;10644;48.834;10.088;2022-11-06T15:04:48;36.30;;;14.52;;
20970;SDS011;10644;48.834;10.088;2022-11-06T15:18:43;22.67;;;12.85;;
20970;SDS011;10644;48.834;10.088;2022-11-06T15:21:25;23.02;;;13.73;;
20970;SDS011;10644;48.834;10.088;2022-11-06T15:26:47;24.90;;;13.10;;
20970;SDS011;10644;48.834;10.088;2022-11-06T15:29:31;22.40;;;13.93;;
20970;SDS011;10644;48.834;10.088;2022-11-06T15:32:05;22.50;;;13.17;;
20970;SDS011;10644;48.834;10.088;2022-11-06T15:37:43;36.40;;;14.47;;
20970;SDS011;10644;48.834;10.088;2022-11-06T15:40:28;21.20;;;13.63;;
20970;SDS011;10644;48.834;10.088;2022-11-06T15:46:03;27.10;;;13.67;;
20970;SDS011;10644;48.834;10.088;2022-11-06T15:48:37;30.83;;;13.57;;
20970;SDS011;10644;48.834;10.088;2022-11-06T15:54:11;23.97;;;12.97;;
20970;SDS011;10644;48.834;10.088;2022-11-06T15:56:38;29.88;;;16.08;;
20970;SDS011;10644;48.834;10.088;2022-11-06T15:59:11;35.57;;;20.20;;
20970;SDS011;10644;48.834;10.088;2022-11-06T16:01:38;31.93;;;16.17;;
20970;SDS011;10644;48.834;10.088;2022-11-06T16:04:10;32.60;;;17.10;;
20970;SDS011;10644;48.834;10.088;2022-11-06T16:06:39;31.53;;;16.40;;
20970;SDS011;10644;48.834;10.088;2022-11-06T16:09:06;35.03;;;15.50;;
20970;SDS011;10644;48.834;10.088;2022-11-06T16:11:41;24.40;;;13.87;;
20970;SDS011;10644;48.834;10.088;2022-11-06T16:14:11;51.83;;;19.40;;
20970;SDS011;10644;48.834;10.088;2022-11-06T16:16:50;30.03;;;15.60;;
20970;SDS011;10644;48.834;10.088;2022-11-06T16:19:19;29.87;;;16.27;;
20970;SDS011;10644;48.834;10.088;2022-11-06T16:21:56;27.27;;;13.87;;
20970;SDS011;10644;48.834;10.088;2022-11-06T16:24:23;26.43;;;14.23;;
20970;SDS011;10644;48.834;10.088;2022-11-06T16:26:52;30.00;;;15.43;;
20970;SDS011;10644;48.834;10.088;2022-11-06T16:29:26;34.27;;;17.20;;
20970;SDS011;10644;48.834;10.088;2022-11-06T16:32:00;28.13;;;15.00;;
20970;SDS011;10644;48.834;10.088;2022-11-06T16:34:42;30.77;;;16.07;;
20970;SDS011;10644;48.834;10.088;2022-11-06T16:39:50;28.90;;;15.20;;
20970;SDS011;10644;48.834;10.088;2022-11-06T16:42:22;31.73;;;15.40;;
20970;SDS011;10644;48.834;10.088;2022-11-06T16:47:41;37.43;;;16.87;;
20970;SDS011;10644;48.834;10.088;2022-11-06T16:50:41;31.83;;;15.53;;
20970;SDS011;10644;48.834;10.088;2022-11-06T16:53:17;27.77;;;14.57;;
20970;SDS011;10644;48.834;10.088;2022-11-06T16:58:34;27.50;;;15.23;;
20970;SDS011;10644;48.834;10.088;2022-11-06T17:03:58;35.73;;;17.40;;
20970;SDS011;10644;48.834;10.088;2022-11-06T17:09:10;34.00;;;17.30;;
20970;SDS011;10644;48.834;10.088;2022-11-06T17:11:57;37.40;;;17.17;;
20970;SDS011;10644;48.834;10.088;2022-11-06T17:14:30;36.33;;;18.10;;
20970;SDS011;10644;48.834;10.088;2022-11-06T17:16:57;32.30;;;17.50;;
20970;SDS011;10644;48.834;10.088;2022-11-06T17:19:36;36.60;;;19.00;;
20970;SDS011;10644;48.834;10.088;2022-11-06T17:24:55;37.20;;;19.93;;
20970;SDS011;10644;48.834;10.088;2022-11-06T17:27:22;34.87;;;20.47;;
20970;SDS011;10644;48.834;10.088;2022-11-06T17:29:49;41.47;;;24.27;;
20970;SDS011;10644;48.834;10.088;2022-11-06T17:32:15;34.77;;;18.80;;
20970;SDS011;10644;48.834;10.088;2022-11-06T17:37:42;38.60;;;21.27;;
20970;SDS011;10644;48.834;10.088;2022-11-06T17:45:05;38.10;;;18.60;;
20970;SDS011;10644;48.834;10.088;2022-11-06T17:47:48;36.83;;;22.70;;
20970;SDS011;10644;48.834;10.088;2022-11-06T17:53:20;32.03;;;17.10;;
20970;SDS011;10644;48.834;10.088;2022-11-06T17:55:50;33.03;;;17.90;;
20970;SDS011;10644;48.834;10.088;2022-11-06T17:58:17;26.13;;;14.50;;
20970;SDS011;10644;48.834;10.088;2022-11-06T18:03:44;37.57;;;18.60;;
20970;SDS011;10644;48.834;10.088;2022-11-06T18:06:22;35.97;;;18.30;;
20970;SDS011;10644;48.834;10.088;2022-11-06T18:08:47;35.13;;;19.20;;
20970;SDS011;10644;48.834;10.088;2022-11-06T18:11:16;32.40;;;17.00;;
20970;SDS011;10644;48.834;10.088;2022-11-06T18:13:59;34.33;;;18.00;;
20970;SDS011;10644;48.834;10.088;2022-11-06T18:24:43;36.40;;;18.00;;
20970;SDS011;10644;48.834;10.088;2022-11-06T18:27:20;37.33;;;18.00;;
20970;SDS011;10644;48.834;10.088;2022-11-06T18:29:46;32.80;;;18.23;;
20970;SDS011;10644;48.834;10.088;2022-11-06T18:32:12;30.87;;;17.50;;
20970;SDS011;10644;48.834;10.088;2022-11-06T18:34:38;32.27;;;17.63;;
20970;SDS011;10644;48.834;10.088;2022-11-06T18:37:04;30.80;;;16.90;;
20970;SDS011;10644;48.834;10.088;2022-11-06T18:39:29;27.30;;;15.80;;
20970;SDS011;10644;48.834;10.088;2022-11-06T18:42:07;34.07;;;17.30;;
20970;SDS011;10644;48.834;10.088;2022-11-06T18:44:43;26.00;;;14.90;;
20970;SDS011;10644;48.834;10.088;2022-11-06T18:47:11;27.50;;;16.37;;
20970;SDS011;10644;48.834;10.088;2022-11-06T18:49:36;33.00;;;17.63;;
20970;SDS011;10644;48.834;10.088;2022-11-06T18:52:02;28.50;;;13.17;;
20970;SDS011;10644;48.834;10.088;2022-11-06T18:54:29;21.00;;;12.50;;
20970;SDS011;10644;48.834;10.088;2022-11-06T19:02:21;21.30;;;12.40;;
20970;SDS011;10644;48.834;10.088;2022-11-06T19:04:47;23.93;;;14.20;;
20970;SDS011;10644;48.834;10.088;2022-11-06T19:07:20;17.50;;;10.90;;
20970;SDS011;10644;48.834;10.088;2022-11-06T19:09:46;19.53;;;11.10;;
20970;SDS011;10644;48.834;10.088;2022-11-06T19:14:57;138.93;;;56.90;;
20970;SDS011;10644;48.834;10.088;2022-11-06T19:17:24;59.43;;;30.23;;
20970;SDS011;10644;48.834;10.088;2022-11-06T19:19:49;23.40;;;13.83;;
20970;SDS011;10644;48.834;10.088;2022-11-06T19:22:20;21.03;;;10.80;;
20970;SDS011;10644;48.834;10.088;2022-11-06T19:24:45;18.50;;;11.00;;
20970;SDS011;10644;48.834;10.088;2022-11-06T19:27:18;21.77;;;13.80;;
20970;SDS011;10644;48.834;10.088;2022-11-06T19:29:47;17.13;;;9.60;;
20970;SDS011;10644;48.834;10.088;2022-11-06T19:32:15;22.63;;;12.13;;
20970;SDS011;10644;48.834;10.088;2022-11-06T19:34:59;22.63;;;12.40;;
20970;SDS011;10644;48.834;10.088;2022-11-06T19:37:26;20.90;;;12.93;;
20970;SDS011;10644;48.834;10.088;2022-11-06T19:42:35;21.43;;;13.47;;
20970;SDS011;10644;48.834;10.088;2022-11-06T19:45:17;20.87;;;12.10;;
20970;SDS011;10644;48.834;10.088;2022-11-06T19:47:48;25.30;;;11.60;;
20970;SDS011;10644;48.834;10.088;2022-11-06T19:50:15;10.43;;;6.73;;
20970;SDS011;10644;48.834;10.088;2022-11-06T19:52:52;7.93;;;5.00;;
20970;SDS011;10644;48.834;10.088;2022-11-06T19:55:20;16.67;;;10.77;;
20970;SDS011;10644;48.834;10.088;2022-11-06T19:57:58;16.23;;;8.37;;
20970;SDS011;10644;48.834;10.088;2022-11-06T20:00:23;11.23;;;7.07;;
20970;SDS011;10644;48.834;10.088;2022-11-06T20:05:43;15.20;;;6.80;;
20970;SDS011;10644;48.834;10.088;2022-11-06T20:08:25;9.67;;;5.37;;
20970;SDS011;10644;48.834;10.088;2022-11-06T20:10:50;5.80;;;4.17;;
20970;SDS011;10644;48.834;10.088;2022-11-06T20:13:34;11.73;;;5.87;;
20970;SDS011;10644;48.834;10.088;2022-11-06T20:16:17;7.73;;;5.60;;
20970;SDS011;10644;48.834;10.088;2022-11-06T20:18:54;12.60;;;4.77;;
20970;SDS011;10644;48.834;10.088;2022-11-06T20:21:37;23.33;;;5.93;;
20970;SDS011;10644;48.834;10.088;2022-11-06T20:24:15;4.73;;;3.80;;
20970;SDS011;10644;48.834;10.088;2022-11-06T20:26:50;7.90;;;4.17;;
20970;SDS011;10644;48.834;10.088;2022-11-06T20:29:25;13.67;;;4.53;;
20970;SDS011;10644;48.834;10.088;2022-11-06T20:34:33;6.27;;;4.10;;
20970;SDS011;10644;48.834;10.088;2022-11-06T20:36:58;13.10;;;7.00;;
20970;SDS011;10644;48.834;10.088;2022-11-06T20:39:25;16.60;;;9.93;;
20970;SDS011;10644;48.834;10.088;2022-11-06T20:41:56;26.93;;;13.63;;
20970;SDS011;10644;48.834;10.088;2022-11-06T20:44:30;15.23;;;7.40;;
20970;SDS011;10644;48.834;10.088;2022-11-06T20:49:59;18.73;;;11.10;;
20970;SDS011;10644;48.834;10.088;2022-11-06T20:52:25;28.50;;;18.20;;
20970;SDS011;10644;48.834;10.088;2022-11-06T20:54:51;18.33;;;11.30;;
20970;SDS011;10644;48.834;10.088;2022-11-06T20:57:22;14.87;;;8.10;;
20970;SDS011;10644;48.834;10.088;2022-11-06T21:00:03;21.00;;;13.67;;
20970;SDS011;10644;48.834;10.088;2022-11-06T21:02:31;24.80;;;10.63;;
20970;SDS011;10644;48.834;10.088;2022-11-06T21:07:28;24.63;;;13.17;;
20970;SDS011;10644;48.834;10.088;2022-11-06T21:12:24;15.30;;;9.27;;
20970;SDS011;10644;48.834;10.088;2022-11-06T21:14:52;32.10;;;15.73;;
20970;SDS011;10644;48.834;10.088;2022-11-06T21:17:25;17.20;;;9.33;;
20970;SDS011;10644;48.834;10.088;2022-11-06T21:19:50;13.77;;;8.30;;
20970;SDS011;10644;48.834;10.088;2022-11-06T21:22:16;13.33;;;7.30;;
20970;SDS011;10644;48.834;10.088;2022-11-06T21:24:49;7.37;;;4.00;;
20970;SDS011;10644;48.834;10.088;2022-11-06T21:27:15;6.33;;;3.30;;
20970;SDS011;10644;48.834;10.088;2022-11-06T21:29:41;7.53;;;3.90;;
20970;SDS011;10644;48.834;10.088;2022-11-06T21:32:08;9.47;;;4.10;;
20970;SDS011;10644;48.834;10.088;2022-11-06T21:37:35;7.60;;;3.50;;
20970;SDS011;10644;48.834;10.088;2022-11-06T21:40:03;12.20;;;3.97;;
20970;SDS011;10644;48.834;10.088;2022-11-06T21:42:30;6.40;;;4.10;;
20970;SDS011;10644;48.834;10.088;2022-11-06T21:44:58;30.83;;;9.90;;
20970;SDS011;10644;48.834;10.088;2022-11-06T21:47:23;28.30;;;11.27;;
20970;SDS011;10644;48.834;10.088;2022-11-06T21:49:50;30.57;;;13.67;;
20970;SDS011;10644;48.834;10.088;2022-11-06T21:52:20;21.00;;;9.83;;
20970;SDS011;10644;48.834;10.088;2022-11-06T21:55:07;16.53;;;7.83;;
20970;SDS011;10644;48.834;10.088;2022-11-06T21:57:53;15.90;;;8.20;;
20970;SDS011;10644;48.834;10.088;2022-11-06T22:00:27;14.80;;;8.33;;
20970;SDS011;10644;48.834;10.088;2022-11-06T22:02:53;16.63;;;8.67;;
20970;SDS011;10644;48.834;10.088;2022-11-06T22:05:21;25.03;;;13.27;;
20970;SDS011;10644;48.834;10.088;2022-11-06T22:07:52;25.77;;;14.17;;
20970;SDS011;10644;48.834;10.088;2022-11-06T22:10:22;27.60;;;11.83;;
20970;SDS011;10644;48.834;10.088;2022-11-06T22:12:52;31.77;;;15.30;;
20970;SDS011;10644;48.834;10.088;2022-11-06T22:15:18;20.03;;;10.70;;
20970;SDS011;10644;48.834;10.088;2022-11-06T22:17:43;20.47;;;9.20;;